sensor_id;sensor_type;location;lat;lon;timestamp;pressure;altitude;pressure_sealevel;temperature;humidity
56894;BME280;43392;50.078;13.704;2024-03-08T00:00:04;97343.47;;;1.62;73.52
56894;BME280;43392;50.078;13.704;2024-03-08T00:02:35;97341.63;;;1.62;73.68
56894;BME280;43392;50.078;13.704;2024-03-08T00:05:02;97342.88;;;1.60;73.71
56894;BME280;43392;50.078;13.704;2024-03-08T00:07:29;97336.34;;;1.56;73.82
56894;BME280;43392;50.078;13.704;2024-03-08T00:09:55;97349.38;;;1.57;73.92
56894;BME280;43392;50.078;13.704;2024-03-08T00:12:23;97337.41;;;1.55;73.92
56894;BME280;43392;50.078;13.704;2024-03-08T00:14:52;97337.41;;;1.55;74.24
56894;BME280;43392;50.078;13.704;2024-03-08T00:17:20;97339.41;;;1.53;74.15
56894;BME280;43392;50.078;13.704;2024-03-08T00:19:48;97335.56;;;1.49;74.35
56894;BME280;43392;50.078;13.704;2024-03-08T00:22:15;97328.06;;;1.46;74.37
56894;BME280;43392;50.078;13.704;2024-03-08T00:24:41;97335.97;;;1.46;74.64
56894;BME280;43392;50.078;13.704;2024-03-08T00:27:08;97327.69;;;1.42;74.80
56894;BME280;43392;50.078;13.704;2024-03-08T00:29:36;97338.03;;;1.44;74.60
56894;BME280;43392;50.078;13.704;2024-03-08T00:32:04;97324.22;;;1.42;75.01
56894;BME280;43392;50.078;13.704;2024-03-08T00:34:35;97324.84;;;1.37;75.28
56894;BME280;43392;50.078;13.704;2024-03-08T00:37:02;97330.53;;;1.34;75.34
56894;BME280;43392;50.078;13.704;2024-03-08T00:39:28;97335.81;;;1.34;75.16
56894;BME280;43392;50.078;13.704;2024-03-08T00:41:55;97329.72;;;1.33;75.45
56894;BME280;43392;50.078;13.704;2024-03-08T00:44:22;97335.81;;;1.34;75.48
56894;BME280;43392;50.078;13.704;2024-03-08T00:46:50;97337.06;;;1.31;75.41
56894;BME280;43392;50.078;13.704;2024-03-08T00:49:16;97327.31;;;1.32;75.53
56894;BME280;43392;50.078;13.704;2024-03-08T00:51:43;97333.41;;;1.32;75.66
56894;BME280;43392;50.078;13.704;2024-03-08T00:54:10;97322.84;;;1.32;75.61
56894;BME280;43392;50.078;13.704;2024-03-08T00:56:36;97326.28;;;1.33;75.61
56894;BME280;43392;50.078;13.704;2024-03-08T00:59:04;97313.09;;;1.33;75.60
56894;BME280;43392;50.078;13.704;2024-03-08T01:01:31;97322.00;;;1.32;75.65
56894;BME280;43392;50.078;13.704;2024-03-08T01:03:59;97313.50;;;1.30;75.79
56894;BME280;43392;50.078;13.704;2024-03-08T01:06:26;97312.69;;;1.29;75.82
56894;BME280;43392;50.078;13.704;2024-03-08T01:08:53;97304.75;;;1.29;75.81
56894;BME280;43392;50.078;13.704;2024-03-08T01:11:19;97317.13;;;1.29;75.81
56894;BME280;43392;50.078;13.704;2024-03-08T01:13:46;97310.25;;;1.28;75.72
56894;BME280;43392;50.078;13.704;2024-03-08T01:16:15;97305.16;;;1.26;76.12
56894;BME280;43392;50.078;13.704;2024-03-08T01:18:42;97307.19;;;1.24;76.03
56894;BME280;43392;50.078;13.704;2024-03-08T01:21:10;97310.88;;;1.23;75.71
56894;BME280;43392;50.078;13.704;2024-03-08T01:23:36;97303.16;;;1.22;76.17
56894;BME280;43392;50.078;13.704;2024-03-08T01:26:04;97294.41;;;1.21;76.08
56894;BME280;43392;50.078;13.704;2024-03-08T01:28:31;97297.88;;;1.22;76.34
56894;BME280;43392;50.078;13.704;2024-03-08T01:30:59;97291.75;;;1.21;76.26
56894;BME280;43392;50.078;13.704;2024-03-08T01:33:27;97290.34;;;1.19;76.08
56894;BME280;43392;50.078;13.704;2024-03-08T01:35:53;97286.50;;;1.15;76.39
56894;BME280;43392;50.078;13.704;2024-03-08T01:38:21;97289.16;;;1.15;76.27
56894;BME280;43392;50.078;13.704;2024-03-08T01:40:48;97288.16;;;1.16;76.31
56894;BME280;43392;50.078;13.704;2024-03-08T01:43:17;97277.38;;;1.17;76.35
56894;BME280;43392;50.078;13.704;2024-03-08T01:45:44;97276.13;;;1.20;76.23
56894;BME280;43392;50.078;13.704;2024-03-08T01:48:11;97273.28;;;1.21;76.53
56894;BME280;43392;50.078;13.704;2024-03-08T01:50:38;97274.50;;;1.25;76.07
56894;BME280;43392;50.078;13.704;2024-03-08T01:53:05;97271.63;;;1.27;76.31
56894;BME280;43392;50.078;13.704;2024-03-08T01:55:34;97266.56;;;1.25;76.15
56894;BME280;43392;50.078;13.704;2024-03-08T01:58:01;97268.78;;;1.28;76.37
56894;BME280;43392;50.078;13.704;2024-03-08T02:00:29;97271.22;;;1.30;76.16
56894;BME280;43392;50.078;13.704;2024-03-08T02:02:57;97269.22;;;1.25;76.59
56894;BME280;43392;50.078;13.704;2024-03-08T02:05:24;97264.72;;;1.26;76.18
56894;BME280;43392;50.078;13.704;2024-03-08T02:07:50;97263.72;;;1.27;76.42
56894;BME280;43392;50.078;13.704;2024-03-08T02:10:17;97258.03;;;1.30;76.55
56894;BME280;43392;50.078;13.704;2024-03-08T02:12:46;97254.16;;;1.32;76.62
56894;BME280;43392;50.078;13.704;2024-03-08T02:15:13;97245.19;;;1.33;76.44
56894;BME280;43392;50.078;13.704;2024-03-08T02:17:40;97250.06;;;1.37;76.45
56894;BME280;43392;50.078;13.704;2024-03-08T02:20:07;97243.53;;;1.39;76.48
56894;BME280;43392;50.078;13.704;2024-03-08T02:22:37;97246.59;;;1.43;76.67
56894;BME280;43392;50.078;13.704;2024-03-08T02:25:05;97243.94;;;1.43;76.63
56894;BME280;43392;50.078;13.704;2024-03-08T02:27:32;97237.63;;;1.44;76.85
56894;BME280;43392;50.078;13.704;2024-03-08T02:29:58;97238.66;;;1.43;76.81
56894;BME280;43392;50.078;13.704;2024-03-08T02:32:26;97243.13;;;1.42;76.83
56894;BME280;43392;50.078;13.704;2024-03-08T02:34:56;97236.47;;;1.33;77.07
56894;BME280;43392;50.078;13.704;2024-03-08T02:37:25;97239.53;;;1.30;77.13
56894;BME280;43392;50.078;13.704;2024-03-08T02:39:54;97241.16;;;1.24;77.50
56894;BME280;43392;50.078;13.704;2024-03-08T02:42:20;97245.25;;;1.20;77.49
56894;BME280;43392;50.078;13.704;2024-03-08T02:44:48;97239.38;;;1.18;77.50
56894;BME280;43392;50.078;13.704;2024-03-08T02:47:14;97231.84;;;1.22;77.52
56894;BME280;43392;50.078;13.704;2024-03-08T02:49:41;97232.22;;;1.25;77.77
56894;BME280;43392;50.078;13.704;2024-03-08T02:52:08;97237.53;;;1.25;77.67
56894;BME280;43392;50.078;13.704;2024-03-08T02:54:34;97225.72;;;1.21;77.79
56894;BME280;43392;50.078;13.704;2024-03-08T02:57:03;97233.88;;;1.20;77.98
56894;BME280;43392;50.078;13.704;2024-03-08T02:59:32;97230.22;;;1.21;78.03
56894;BME280;43392;50.078;13.704;2024-03-08T03:01:59;97231.47;;;1.18;78.27
56894;BME280;43392;50.078;13.704;2024-03-08T03:04:26;97228.59;;;1.20;78.14
56894;BME280;43392;50.078;13.704;2024-03-08T03:06:53;97228.38;;;1.21;78.08
56894;BME280;43392;50.078;13.704;2024-03-08T03:09:20;97226.19;;;1.18;78.21
56894;BME280;43392;50.078;13.704;2024-03-08T03:11:49;97230.41;;;1.19;78.61
56894;BME280;43392;50.078;13.704;2024-03-08T03:14:17;97228.19;;;1.23;78.47
56894;BME280;43392;50.078;13.704;2024-03-08T03:16:44;97226.72;;;1.27;78.45
56894;BME280;43392;50.078;13.704;2024-03-08T03:19:11;97217.81;;;1.28;78.54
56894;BME280;43392;50.078;13.704;2024-03-08T03:21:37;97223.25;;;1.33;78.39
56894;BME280;43392;50.078;13.704;2024-03-08T03:24:05;97227.31;;;1.36;78.39
56894;BME280;43392;50.078;13.704;2024-03-08T03:26:35;97221.22;;;1.35;78.41
56894;BME280;43392;50.078;13.704;2024-03-08T03:29:02;97214.69;;;1.38;78.05
56894;BME280;43392;50.078;13.704;2024-03-08T03:31:32;97207.59;;;1.31;78.17
56894;BME280;43392;50.078;13.704;2024-03-08T03:33:59;97215.94;;;1.28;78.42
56894;BME280;43392;50.078;13.704;2024-03-08T03:36:28;97197.69;;;1.27;78.28
56894;BME280;43392;50.078;13.704;2024-03-08T03:38:55;97204.59;;;1.28;78.58
56894;BME280;43392;50.078;13.704;2024-03-08T03:41:30;97205.38;;;1.35;78.42
56894;BME280;43392;50.078;13.704;2024-03-08T03:43:57;97201.31;;;1.32;78.38
56894;BME280;43392;50.078;13.704;2024-03-08T03:46:24;97206.41;;;1.27;78.47
56894;BME280;43392;50.078;13.704;2024-03-08T03:48:53;97194.22;;;1.26;78.57
56894;BME280;43392;50.078;13.704;2024-03-08T03:51:20;97203.97;;;1.32;78.89
56894;BME280;43392;50.078;13.704;2024-03-08T03:53:47;97200.44;;;1.39;78.87
56894;BME280;43392;50.078;13.704;2024-03-08T03:56:14;97199.03;;;1.43;78.81
56894;BME280;43392;50.078;13.704;2024-03-08T03:58:40;97198.66;;;1.32;78.50
56894;BME280;43392;50.078;13.704;2024-03-08T04:01:08;97195.06;;;1.20;79.05
56894;BME280;43392;50.078;13.704;2024-03-08T04:03:35;97206.00;;;1.24;78.97
56894;BME280;43392;50.078;13.704;2024-03-08T04:06:03;97208.66;;;1.30;79.25
56894;BME280;43392;50.078;13.704;2024-03-08T04:08:30;97193.75;;;1.36;79.14
56894;BME280;43392;50.078;13.704;2024-03-08T04:10:59;97195.81;;;1.34;78.96
56894;BME280;43392;50.078;13.704;2024-03-08T04:13:26;97198.09;;;1.24;79.20
56894;BME280;43392;50.078;13.704;2024-03-08T04:15:53;97202.41;;;1.18;79.56
56894;BME280;43392;50.078;13.704;2024-03-08T04:18:19;97202.19;;;1.20;79.44
56894;BME280;43392;50.078;13.704;2024-03-08T04:20:46;97203.38;;;1.24;79.34
56894;BME280;43392;50.078;13.704;2024-03-08T04:23:14;97195.66;;;1.22;79.54
56894;BME280;43392;50.078;13.704;2024-03-08T04:25:41;97194.25;;;1.20;79.47
56894;BME280;43392;50.078;13.704;2024-03-08T04:28:08;97190.81;;;1.19;79.43
56894;BME280;43392;50.078;13.704;2024-03-08T04:30:37;97187.16;;;1.20;79.47
56894;BME280;43392;50.078;13.704;2024-03-08T04:33:04;97188.16;;;1.19;79.46
56894;BME280;43392;50.078;13.704;2024-03-08T04:35:31;97186.75;;;1.23;79.48
56894;BME280;43392;50.078;13.704;2024-03-08T04:37:58;97173.50;;;1.30;79.51
56894;BME280;43392;50.078;13.704;2024-03-08T04:40:26;97173.69;;;1.28;79.20
56894;BME280;43392;50.078;13.704;2024-03-08T04:42:53;97170.88;;;1.23;79.46
56894;BME280;43392;50.078;13.704;2024-03-08T04:45:19;97179.41;;;1.25;79.43
56894;BME280;43392;50.078;13.704;2024-03-08T04:47:47;97179.41;;;1.25;79.36
56894;BME280;43392;50.078;13.704;2024-03-08T04:50:13;97177.13;;;1.29;79.49
56894;BME280;43392;50.078;13.704;2024-03-08T04:52:40;97182.00;;;1.32;79.47
56894;BME280;43392;50.078;13.704;2024-03-08T04:55:07;97178.72;;;1.37;79.40
56894;BME280;43392;50.078;13.704;2024-03-08T04:57:35;97173.44;;;1.37;79.46
56894;BME280;43392;50.078;13.704;2024-03-08T05:00:02;97174.03;;;1.39;79.42
56894;BME280;43392;50.078;13.704;2024-03-08T05:02:30;97174.31;;;1.30;79.34
56894;BME280;43392;50.078;13.704;2024-03-08T05:04:57;97174.13;;;1.25;79.38
56894;BME280;43392;50.078;13.704;2024-03-08T05:07:23;97178.38;;;1.26;79.82
56894;BME280;43392;50.078;13.704;2024-03-08T05:09:51;97182.22;;;1.30;79.65
56894;BME280;43392;50.078;13.704;2024-03-08T05:12:17;97178.94;;;1.35;79.72
56894;BME280;43392;50.078;13.704;2024-03-08T05:14:46;97172.22;;;1.39;79.36
56894;BME280;43392;50.078;13.704;2024-03-08T05:17:14;97186.47;;;1.31;79.32
56894;BME280;43392;50.078;13.704;2024-03-08T05:19:41;97183.41;;;1.34;79.34
56894;BME280;43392;50.078;13.704;2024-03-08T05:22:08;97182.41;;;1.36;79.30
56894;BME280;43392;50.078;13.704;2024-03-08T05:24:34;97179.97;;;1.34;79.39
56894;BME280;43392;50.078;13.704;2024-03-08T05:27:01;97186.06;;;1.34;79.49
56894;BME280;43392;50.078;13.704;2024-03-08T05:29:28;97183.41;;;1.34;79.61
56894;BME280;43392;50.078;13.704;2024-03-08T05:31:57;97173.69;;;1.28;79.61
56894;BME280;43392;50.078;13.704;2024-03-08T05:34:24;97172.91;;;1.28;79.75
56894;BME280;43392;50.078;13.704;2024-03-08T05:36:53;97171.22;;;1.33;79.92
56894;BME280;43392;50.078;13.704;2024-03-08T05:39:20;97178.31;;;1.40;79.65
56894;BME280;43392;50.078;13.704;2024-03-08T05:41:47;97175.25;;;1.43;79.76
56894;BME280;43392;50.078;13.704;2024-03-08T05:44:14;97171.97;;;1.47;79.51
56894;BME280;43392;50.078;13.704;2024-03-08T05:46:42;97174.97;;;1.51;79.50
56894;BME280;43392;50.078;13.704;2024-03-08T05:49:10;97172.72;;;1.54;79.25
56894;BME280;43392;50.078;13.704;2024-03-08T05:51:38;97171.69;;;1.55;79.56
56894;BME280;43392;50.078;13.704;2024-03-08T05:54:06;97178.59;;;1.56;79.44
56894;BME280;43392;50.078;13.704;2024-03-08T05:56:36;97176.19;;;1.55;79.25
56894;BME280;43392;50.078;13.704;2024-03-08T05:59:03;97181.47;;;1.55;79.22
56894;BME280;43392;50.078;13.704;2024-03-08T06:01:30;97188.38;;;1.56;79.17
56894;BME280;43392;50.078;13.704;2024-03-08T06:03:57;97189.41;;;1.55;79.43
56894;BME280;43392;50.078;13.704;2024-03-08T06:06:25;97183.91;;;1.56;79.23
56894;BME280;43392;50.078;13.704;2024-03-08T06:08:52;97186.53;;;1.56;79.09
56894;BME280;43392;50.078;13.704;2024-03-08T06:11:21;97186.53;;;1.56;79.16
56894;BME280;43392;50.078;13.704;2024-03-08T06:13:48;97183.06;;;1.56;79.35
56894;BME280;43392;50.078;13.704;2024-03-08T06:16:15;97191.81;;;1.56;79.09
56894;BME280;43392;50.078;13.704;2024-03-08T06:18:42;97193.47;;;1.57;79.01
56894;BME280;43392;50.078;13.704;2024-03-08T06:21:09;97177.63;;;1.51;79.13
56894;BME280;43392;50.078;13.704;2024-03-08T06:23:38;97182.88;;;1.57;79.05
56894;BME280;43392;50.078;13.704;2024-03-08T06:26:05;97186.28;;;1.64;78.96
56894;BME280;43392;50.078;13.704;2024-03-08T06:28:31;97193.00;;;1.67;79.10
56894;BME280;43392;50.078;13.704;2024-03-08T06:30:58;97191.53;;;1.71;78.79
56894;BME280;43392;50.078;13.704;2024-03-08T06:33:25;97189.28;;;1.74;78.80
56894;BME280;43392;50.078;13.704;2024-03-08T06:35:52;97184.78;;;1.75;78.66
56894;BME280;43392;50.078;13.704;2024-03-08T06:38:20;97181.34;;;1.74;78.68
56894;BME280;43392;50.078;13.704;2024-03-08T06:40:48;97185.59;;;1.75;78.72
56894;BME280;43392;50.078;13.704;2024-03-08T06:43:14;97182.13;;;1.75;78.62
56894;BME280;43392;50.078;13.704;2024-03-08T06:45:42;97180.09;;;1.77;78.50
56894;BME280;43392;50.078;13.704;2024-03-08T06:48:13;97182.69;;;1.83;78.50
56894;BME280;43392;50.078;13.704;2024-03-08T06:50:40;97187.69;;;1.91;78.51
56894;BME280;43392;50.078;13.704;2024-03-08T06:53:07;97174.03;;;2.01;78.35
56894;BME280;43392;50.078;13.704;2024-03-08T06:55:33;97180.06;;;2.08;78.03
56894;BME280;43392;50.078;13.704;2024-03-08T06:58:02;97174.31;;;2.11;77.79
56894;BME280;43392;50.078;13.704;2024-03-08T07:00:28;97177.34;;;2.15;77.68
56894;BME280;43392;50.078;13.704;2024-03-08T07:02:55;97174.28;;;2.18;77.56
56894;BME280;43392;50.078;13.704;2024-03-08T07:05:26;97175.03;;;2.25;77.33
56894;BME280;43392;50.078;13.704;2024-03-08T07:07:52;97165.41;;;2.30;76.88
56894;BME280;43392;50.078;13.704;2024-03-08T07:10:20;97161.31;;;2.34;76.79
56894;BME280;43392;50.078;13.704;2024-03-08T07:12:57;97172.03;;;2.39;76.67
56894;BME280;43392;50.078;13.704;2024-03-08T07:15:23;97164.88;;;2.40;76.50
56894;BME280;43392;50.078;13.704;2024-03-08T07:17:50;97174.19;;;2.49;76.45
56894;BME280;43392;50.078;13.704;2024-03-08T07:20:17;97167.41;;;2.53;76.05
56894;BME280;43392;50.078;13.704;2024-03-08T07:22:45;97173.09;;;2.56;75.86
56894;BME280;43392;50.078;13.704;2024-03-08T07:25:13;97168.59;;;2.57;75.97
56894;BME280;43392;50.078;13.704;2024-03-08T07:27:47;97170.81;;;2.60;75.67
56894;BME280;43392;50.078;13.704;2024-03-08T07:30:16;97173.84;;;2.63;75.48
56894;BME280;43392;50.078;13.704;2024-03-08T07:33:00;97166.25;;;2.67;75.52
56894;BME280;43392;50.078;13.704;2024-03-08T07:35:27;97164.56;;;2.73;75.32
56894;BME280;43392;50.078;13.704;2024-03-08T07:37:54;97160.66;;;2.75;75.12
56894;BME280;43392;50.078;13.704;2024-03-08T07:40:21;97160.81;;;2.80;75.31
56894;BME280;43392;50.078;13.704;2024-03-08T07:42:48;97165.00;;;2.88;75.06
56894;BME280;43392;50.078;13.704;2024-03-08T07:45:16;97159.03;;;2.92;74.96
56894;BME280;43392;50.078;13.704;2024-03-08T07:47:43;97160.00;;;2.98;74.91
56894;BME280;43392;50.078;13.704;2024-03-08T07:50:10;97162.56;;;3.04;74.51
56894;BME280;43392;50.078;13.704;2024-03-08T07:52:41;97156.97;;;3.12;74.51
56894;BME280;43392;50.078;13.704;2024-03-08T07:55:08;97147.28;;;3.18;74.04
56894;BME280;43392;50.078;13.704;2024-03-08T07:57:35;97145.03;;;3.21;73.80
56894;BME280;43392;50.078;13.704;2024-03-08T08:00:04;97143.75;;;3.24;73.50
56894;BME280;43392;50.078;13.704;2024-03-08T08:02:34;97140.88;;;3.25;73.31
56894;BME280;43392;50.078;13.704;2024-03-08T08:05:01;97136.41;;;3.26;72.95
56894;BME280;43392;50.078;13.704;2024-03-08T08:07:29;97143.66;;;3.30;72.99
56894;BME280;43392;50.078;13.704;2024-03-08T08:09:56;97134.59;;;3.38;72.70
56894;BME280;43392;50.078;13.704;2024-03-08T08:12:23;97126.53;;;3.45;72.41
56894;BME280;43392;50.078;13.704;2024-03-08T08:14:50;97128.31;;;3.51;72.26
56894;BME280;43392;50.078;13.704;2024-03-08T08:17:17;97125.78;;;3.56;72.09
56894;BME280;43392;50.078;13.704;2024-03-08T08:19:45;97118.88;;;3.66;71.84
56894;BME280;43392;50.078;13.704;2024-03-08T08:22:11;97122.22;;;3.73;71.56
56894;BME280;43392;50.078;13.704;2024-03-08T08:24:38;97117.41;;;3.82;71.27
56894;BME280;43392;50.078;13.704;2024-03-08T08:27:05;97119.50;;;3.91;71.00
56894;BME280;43392;50.078;13.704;2024-03-08T08:29:32;97116.50;;;3.99;71.11
56894;BME280;43392;50.078;13.704;2024-03-08T08:31:59;97112.81;;;4.12;70.82
56894;BME280;43392;50.078;13.704;2024-03-08T08:34:25;97114.09;;;4.21;70.57
56894;BME280;43392;50.078;13.704;2024-03-08T08:36:54;97113.72;;;4.29;70.09
56894;BME280;43392;50.078;13.704;2024-03-08T08:39:21;97113.38;;;4.37;69.56
56894;BME280;43392;50.078;13.704;2024-03-08T08:41:48;97110.28;;;4.40;69.07
56894;BME280;43392;50.078;13.704;2024-03-08T08:44:14;97123.41;;;4.47;68.81
56894;BME280;43392;50.078;13.704;2024-03-08T08:46:41;97117.75;;;4.55;68.54
56894;BME280;43392;50.078;13.704;2024-03-08T08:49:08;97120.63;;;4.65;68.24
56894;BME280;43392;50.078;13.704;2024-03-08T08:51:35;97113.81;;;4.69;67.71
56894;BME280;43392;50.078;13.704;2024-03-08T08:54:04;97114.81;;;4.80;67.61
56894;BME280;43392;50.078;13.704;2024-03-08T08:56:31;97107.75;;;4.85;67.16
56894;BME280;43392;50.078;13.704;2024-03-08T08:58:58;97114.09;;;4.96;67.13
56894;BME280;43392;50.078;13.704;2024-03-08T09:01:25;97107.59;;;5.03;66.93
56894;BME280;43392;50.078;13.704;2024-03-08T09:03:52;97102.38;;;5.08;66.84
56894;BME280;43392;50.078;13.704;2024-03-08T09:06:19;97095.28;;;5.14;66.36
56894;BME280;43392;50.078;13.704;2024-03-08T09:08:46;97097.81;;;5.20;65.87
56894;BME280;43392;50.078;13.704;2024-03-08T09:11:14;97098.84;;;5.19;65.57
56894;BME280;43392;50.078;13.704;2024-03-08T09:13:44;97085.41;;;5.26;65.76
56894;BME280;43392;50.078;13.704;2024-03-08T09:16:11;97098.31;;;5.34;65.38
56894;BME280;43392;50.078;13.704;2024-03-08T09:18:38;97097.84;;;5.37;65.24
56894;BME280;43392;50.078;13.704;2024-03-08T09:21:04;97092.72;;;5.47;64.90
56894;BME280;43392;50.078;13.704;2024-03-08T09:23:35;97079.81;;;5.56;64.80
56894;BME280;43392;50.078;13.704;2024-03-08T09:26:01;97091.13;;;5.63;64.73
56894;BME280;43392;50.078;13.704;2024-03-08T09:28:30;97085.97;;;5.73;64.43
56894;BME280;43392;50.078;13.704;2024-03-08T09:30:57;97082.56;;;5.77;64.15
56894;BME280;43392;50.078;13.704;2024-03-08T09:33:24;97077.81;;;5.79;63.85
56894;BME280;43392;50.078;13.704;2024-03-08T09:35:50;97080.16;;;5.76;63.49
56894;BME280;43392;50.078;13.704;2024-03-08T09:38:18;97078.63;;;5.80;63.33
56894;BME280;43392;50.078;13.704;2024-03-08T09:40:46;97072.13;;;5.87;63.23
56894;BME280;43392;50.078;13.704;2024-03-08T09:43:13;97075.69;;;5.93;63.15
56894;BME280;43392;50.078;13.704;2024-03-08T09:45:42;97063.50;;;5.97;62.76
56894;BME280;43392;50.078;13.704;2024-03-08T09:48:11;97067.59;;;6.05;62.60
56894;BME280;43392;50.078;13.704;2024-03-08T09:50:39;97067.13;;;6.08;62.62
56894;BME280;43392;50.078;13.704;2024-03-08T09:53:06;97063.72;;;6.12;62.39
56894;BME280;43392;50.078;13.704;2024-03-08T09:55:34;97051.72;;;6.10;62.00
56894;BME280;43392;50.078;13.704;2024-03-08T09:58:05;97061.63;;;6.14;62.04
56894;BME280;43392;50.078;13.704;2024-03-08T10:01:03;97055.31;;;6.20;62.12
56894;BME280;43392;50.078;13.704;2024-03-08T10:03:31;97057.09;;;6.15;62.15
56894;BME280;43392;50.078;13.704;2024-03-08T10:05:59;97052.75;;;6.09;62.37
56894;BME280;43392;50.078;13.704;2024-03-08T10:08:26;97055.31;;;6.20;62.05
56894;BME280;43392;50.078;13.704;2024-03-08T10:10:54;97051.13;;;6.24;61.94
56894;BME280;43392;50.078;13.704;2024-03-08T10:13:24;97053.84;;;6.29;61.71
56894;BME280;43392;50.078;13.704;2024-03-08T10:15:52;97051.56;;;6.38;61.55
56894;BME280;43392;50.078;13.704;2024-03-08T10:18:20;97054.72;;;6.56;61.30
56894;BME280;43392;50.078;13.704;2024-03-08T10:21:01;97052.88;;;6.57;60.43
56894;BME280;43392;50.078;13.704;2024-03-08T10:23:29;97042.28;;;6.40;60.81
56894;BME280;43392;50.078;13.704;2024-03-08T10:25:56;97042.97;;;6.52;61.27
56894;BME280;43392;50.078;13.704;2024-03-08T10:28:24;97040.50;;;6.67;60.87
56894;BME280;43392;50.078;13.704;2024-03-08T10:30:51;97034.47;;;6.77;60.55
56894;BME280;43392;50.078;13.704;2024-03-08T10:33:17;97038.31;;;6.86;60.34
56894;BME280;43392;50.078;13.704;2024-03-08T10:35:45;97032.28;;;6.96;60.32
56894;BME280;43392;50.078;13.704;2024-03-08T10:38:15;97019.38;;;7.09;60.03
56894;BME280;43392;50.078;13.704;2024-03-08T10:40:46;97030.63;;;7.16;60.23
56894;BME280;43392;50.078;13.704;2024-03-08T10:43:22;97029.38;;;7.24;59.48
56894;BME280;43392;50.078;13.704;2024-03-08T10:46:00;97025.09;;;7.23;58.77
56894;BME280;43392;50.078;13.704;2024-03-08T10:48:32;97027.25;;;7.26;58.79
56894;BME280;43392;50.078;13.704;2024-03-08T10:51:04;97033.69;;;7.30;58.67
56894;BME280;43392;50.078;13.704;2024-03-08T10:53:33;97016.09;;;7.29;58.29
56894;BME280;43392;50.078;13.704;2024-03-08T10:56:02;97015.53;;;7.27;58.62
56894;BME280;43392;50.078;13.704;2024-03-08T10:58:29;97012.31;;;7.25;58.62
56894;BME280;43392;50.078;13.704;2024-03-08T11:00:57;97001.63;;;7.25;58.25
56894;BME280;43392;50.078;13.704;2024-03-08T11:03:46;97009.69;;;7.30;58.00
56894;BME280;43392;50.078;13.704;2024-03-08T11:06:17;96988.13;;;7.36;58.43
56894;BME280;43392;50.078;13.704;2024-03-08T11:08:47;96999.16;;;7.45;58.26
56894;BME280;43392;50.078;13.704;2024-03-08T11:11:26;96986.63;;;7.46;57.84
56894;BME280;43392;50.078;13.704;2024-03-08T11:14:00;96990.38;;;7.50;58.07
56894;BME280;43392;50.078;13.704;2024-03-08T11:16:43;96986.41;;;7.52;57.23
56894;BME280;43392;50.078;13.704;2024-03-08T11:19:25;96982.44;;;7.55;57.48
56894;BME280;43392;50.078;13.704;2024-03-08T11:22:01;96985.91;;;7.55;57.62
56894;BME280;43392;50.078;13.704;2024-03-08T11:24:37;96980.84;;;7.59;57.66
56894;BME280;43392;50.078;13.704;2024-03-08T11:27:05;96970.50;;;7.67;57.77
56894;BME280;43392;50.078;13.704;2024-03-08T11:29:36;96965.50;;;7.76;57.46
56894;BME280;43392;50.078;13.704;2024-03-08T11:32:07;96965.50;;;7.76;57.31
56894;BME280;43392;50.078;13.704;2024-03-08T11:34:34;96963.13;;;7.79;57.50
56894;BME280;43392;50.078;13.704;2024-03-08T11:37:03;96958.38;;;7.86;57.67
56894;BME280;43392;50.078;13.704;2024-03-08T11:39:30;96950.41;;;7.96;57.71
56894;BME280;43392;50.078;13.704;2024-03-08T11:41:58;96952.03;;;8.02;57.10
56894;BME280;43392;50.078;13.704;2024-03-08T11:44:27;96946.72;;;8.08;57.28
56894;BME280;43392;50.078;13.704;2024-03-08T11:46:54;96943.84;;;8.19;57.58
56894;BME280;43392;50.078;13.704;2024-03-08T11:49:20;96938.84;;;8.28;56.75
56894;BME280;43392;50.078;13.704;2024-03-08T11:51:51;96939.09;;;8.26;56.75
56894;BME280;43392;50.078;13.704;2024-03-08T11:54:20;96939.41;;;8.35;56.73
56894;BME280;43392;50.078;13.704;2024-03-08T11:56:46;96928.19;;;8.38;56.55
56894;BME280;43392;50.078;13.704;2024-03-08T11:59:13;96922.59;;;8.39;56.40
56894;BME280;43392;50.078;13.704;2024-03-08T12:01:40;96920.72;;;8.40;56.81
56894;BME280;43392;50.078;13.704;2024-03-08T12:04:12;96927.69;;;8.46;56.24
56894;BME280;43392;50.078;13.704;2024-03-08T12:06:39;96916.75;;;8.52;56.20
56894;BME280;43392;50.078;13.704;2024-03-08T12:09:08;96911.19;;;8.64;56.56
56894;BME280;43392;50.078;13.704;2024-03-08T12:11:37;96917.06;;;8.71;56.26
56894;BME280;43392;50.078;13.704;2024-03-08T12:14:04;96919.22;;;8.69;55.58
56894;BME280;43392;50.078;13.704;2024-03-08T12:16:31;96915.44;;;8.65;55.62
56894;BME280;43392;50.078;13.704;2024-03-08T12:18:59;96915.41;;;8.50;56.19
56894;BME280;43392;50.078;13.704;2024-03-08T12:21:26;96910.84;;;8.40;56.34
56894;BME280;43392;50.078;13.704;2024-03-08T12:24:05;96905.13;;;8.22;56.12
56894;BME280;43392;50.078;13.704;2024-03-08T12:26:36;96911.22;;;8.12;56.48
56894;BME280;43392;50.078;13.704;2024-03-08T12:29:20;96901.84;;;8.04;57.03
56894;BME280;43392;50.078;13.704;2024-03-08T12:31:48;96905.09;;;8.17;57.05
56894;BME280;43392;50.078;13.704;2024-03-08T12:34:15;96899.03;;;8.31;56.73
56894;BME280;43392;50.078;13.704;2024-03-08T12:36:46;96897.63;;;8.24;56.93
56894;BME280;43392;50.078;13.704;2024-03-08T12:39:16;96890.75;;;8.28;56.89
56894;BME280;43392;50.078;13.704;2024-03-08T12:41:44;96891.25;;;8.25;57.15
56894;BME280;43392;50.078;13.704;2024-03-08T12:44:12;96884.25;;;8.19;57.18
56894;BME280;43392;50.078;13.704;2024-03-08T12:46:39;96886.22;;;8.33;56.59
56894;BME280;43392;50.078;13.704;2024-03-08T12:49:09;96881.13;;;8.27;56.78
56894;BME280;43392;50.078;13.704;2024-03-08T12:51:38;96881.66;;;8.29;56.95
56894;BME280;43392;50.078;13.704;2024-03-08T12:54:05;96877.41;;;8.28;57.07
56894;BME280;43392;50.078;13.704;2024-03-08T12:56:33;96878.78;;;8.45;56.87
56894;BME280;43392;50.078;13.704;2024-03-08T12:59:01;96876.41;;;8.59;56.52
56894;BME280;43392;50.078;13.704;2024-03-08T13:01:28;96872.13;;;8.63;56.33
56894;BME280;43392;50.078;13.704;2024-03-08T13:03:55;96871.59;;;8.61;56.08